sensor_id;sensor_type;location;lat;lon;timestamp;P1;durP1;ratioP1;P2;durP2;ratioP2
1999;SDS011;1001;48.87406500;9.59633600;2023-02-03T00:00:23;2.63;;;1.90;;
1999;SDS011;1001;48.87406500;9.59633600;2023-02-03T00:02:52;3.57;;;2.20;;
1999;SDS011;1001;48.87406500;9.59633600;2023-02-03T00:05:19;4.10;;;1.77;;
1999;SDS011;1001;48.87406500;9.59633600;2023-02-03T00:07:46;2.30;;;2.10;;
1999;SDS011;1001;48.87406500;9.59633600;2023-02-03T00:10:13;2.57;;;2.10;;
1999;SDS011;1001;48.87406500;9.59633600;2023-02-03T00:12:45;2.90;;;1.67;;
1999;SDS011;1001;48.87406500;9.59633600;2023-02-03T00:15:12;3.07;;;1.97;;
1999;SDS011;1001;48.87406500;9.59633600;2023-02-03T00:17:40;3.53;;;1.40;;
1999;SDS011;1001;48.87406500;9.59633600;2023-02-03T00:20:06;2.30;;;1.97;;
1999;SDS011;1001;48.87406500;9.59633600;2023-02-03T00:22:34;3.10;;;2.80;;
1999;SDS011;1001;48.87406500;9.59633600;2023-02-03T00:25:00;3.77;;;1.90;;
1999;SDS011;1001;48.87406500;9.59633600;2023-02-03T00:27:27;2.00;;;1.83;;
1999;SDS011;1001;48.87406500;9.59633600;2023-02-03T00:29:53;5.40;;;1.57;;
1999;SDS011;1001;48.87406500;9.59633600;2023-02-03T00:32:20;3.77;;;1.80;;
1999;SDS011;1001;48.87406500;9.59633600;2023-02-03T00:34:48;2.80;;;1.80;;
1999;SDS011;1001;48.87406500;9.59633600;2023-02-03T00:37:14;2.10;;;1.60;;
1999;SDS011;1001;48.87406500;9.59633600;2023-02-03T00:39:41;6.53;;;1.77;;
1999;SDS011;1001;48.87406500;9.59633600;2023-02-03T00:42:07;4.43;;;2.83;;
1999;SDS011;1001;48.87406500;9.59633600;2023-02-03T00:44:34;4.33;;;1.60;;
1999;SDS011;1001;48.87406500;9.59633600;2023-02-03T00:47:01;3.10;;;1.60;;
1999;SDS011;1001;48.87406500;9.59633600;2023-02-03T00:49:27;2.97;;;1.50;;
1999;SDS011;1001;48.87406500;9.59633600;2023-02-03T00:51:55;2.83;;;1.83;;
1999;SDS011;1001;48.87406500;9.59633600;2023-02-03T00:54:22;1.43;;;1.23;;
1999;SDS011;1001;48.87406500;9.59633600;2023-02-03T00:56:48;1.90;;;1.70;;
1999;SDS011;1001;48.87406500;9.59633600;2023-02-03T00:59:15;2.27;;;1.70;;
1999;SDS011;1001;48.87406500;9.59633600;2023-02-03T01:01:41;4.50;;;1.73;;
1999;SDS011;1001;48.87406500;9.59633600;2023-02-03T01:04:08;2.10;;;1.73;;
1999;SDS011;1001;48.87406500;9.59633600;2023-02-03T01:06:34;3.23;;;1.67;;
1999;SDS011;1001;48.87406500;9.59633600;2023-02-03T01:09:02;6.50;;;2.00;;
1999;SDS011;1001;48.87406500;9.59633600;2023-02-03T01:11:29;2.30;;;1.20;;
1999;SDS011;1001;48.87406500;9.59633600;2023-02-03T01:13:57;1.90;;;1.40;;
1999;SDS011;1001;48.87406500;9.59633600;2023-02-03T01:16:26;4.20;;;1.40;;
1999;SDS011;1001;48.87406500;9.59633600;2023-02-03T01:18:55;1.53;;;1.37;;
1999;SDS011;1001;48.87406500;9.59633600;2023-02-03T01:21:23;5.53;;;1.73;;
1999;SDS011;1001;48.87406500;9.59633600;2023-02-03T01:23:51;2.47;;;1.10;;
1999;SDS011;1001;48.87406500;9.59633600;2023-02-03T01:26:20;1.80;;;1.30;;
1999;SDS011;1001;48.87406500;9.59633600;2023-02-03T01:28:51;3.47;;;1.30;;
1999;SDS011;1001;48.87406500;9.59633600;2023-02-03T01:31:20;1.67;;;1.20;;
1999;SDS011;1001;48.87406500;9.59633600;2023-02-03T01:33:49;1.90;;;1.50;;
1999;SDS011;1001;48.87406500;9.59633600;2023-02-03T01:36:18;2.57;;;1.47;;
1999;SDS011;1001;48.87406500;9.59633600;2023-02-03T01:38:45;2.20;;;1.10;;
1999;SDS011;1001;48.87406500;9.59633600;2023-02-03T01:41:13;1.23;;;1.13;;
1999;SDS011;1001;48.87406500;9.59633600;2023-02-03T01:43:43;1.40;;;1.30;;
1999;SDS011;1001;48.87406500;9.59633600;2023-02-03T01:46:21;2.53;;;1.23;;
1999;SDS011;1001;48.87406500;9.59633600;2023-02-03T01:48:51;2.03;;;1.40;;
1999;SDS011;1001;48.87406500;9.59633600;2023-02-03T01:51:20;2.70;;;1.50;;
1999;SDS011;1001;48.87406500;9.59633600;2023-02-03T01:53:48;2.13;;;1.80;;
1999;SDS011;1001;48.87406500;9.59633600;2023-02-03T01:56:17;1.70;;;1.60;;
1999;SDS011;1001;48.87406500;9.59633600;2023-02-03T01:58:45;1.83;;;1.60;;
1999;SDS011;1001;48.87406500;9.59633600;2023-02-03T02:01:12;5.00;;;1.77;;
1999;SDS011;1001;48.87406500;9.59633600;2023-02-03T02:03:40;3.00;;;1.90;;
1999;SDS011;1001;48.87406500;9.59633600;2023-02-03T02:06:10;2.57;;;2.13;;
1999;SDS011;1001;48.87406500;9.59633600;2023-02-03T02:08:38;2.80;;;1.67;;
1999;SDS011;1001;48.87406500;9.59633600;2023-02-03T02:11:07;3.03;;;1.70;;
1999;SDS011;1001;48.87406500;9.59633600;2023-02-03T02:13:34;2.77;;;1.73;;
1999;SDS011;1001;48.87406500;9.59633600;2023-02-03T02:16:05;1.67;;;1.47;;
1999;SDS011;1001;48.87406500;9.59633600;2023-02-03T02:18:44;2.53;;;1.80;;
1999;SDS011;1001;48.87406500;9.59633600;2023-02-03T02:21:42;3.13;;;1.90;;
1999;SDS011;1001;48.87406500;9.59633600;2023-02-03T02:24:31;8.83;;;2.23;;
1999;SDS011;1001;48.87406500;9.59633600;2023-02-03T02:27:36;2.63;;;1.57;;
1999;SDS011;1001;48.87406500;9.59633600;2023-02-03T02:30:28;1.73;;;1.50;;
1999;SDS011;1001;48.87406500;9.59633600;2023-02-03T02:33:09;2.00;;;1.50;;
1999;SDS011;1001;48.87406500;9.59633600;2023-02-03T02:35:43;3.70;;;1.93;;
1999;SDS011;1001;48.87406500;9.59633600;2023-02-03T02:38:21;3.13;;;1.63;;
1999;SDS011;1001;48.87406500;9.59633600;2023-02-03T02:40:59;2.13;;;1.93;;
1999;SDS011;1001;48.87406500;9.59633600;2023-02-03T02:43:33;2.87;;;2.00;;
1999;SDS011;1001;48.87406500;9.59633600;2023-02-03T02:46:05;5.03;;;1.50;;
1999;SDS011;1001;48.87406500;9.59633600;2023-02-03T02:48:40;3.50;;;2.07;;
1999;SDS011;1001;48.87406500;9.59633600;2023-02-03T02:51:11;4.13;;;1.87;;
1999;SDS011;1001;48.87406500;9.59633600;2023-02-03T02:53:41;2.13;;;1.80;;
1999;SDS011;1001;48.87406500;9.59633600;2023-02-03T02:56:13;2.10;;;1.53;;
1999;SDS011;1001;48.87406500;9.59633600;2023-02-03T02:58:40;3.50;;;1.33;;
1999;SDS011;1001;48.87406500;9.59633600;2023-02-03T03:01:11;2.60;;;1.87;;
1999;SDS011;1001;48.87406500;9.59633600;2023-02-03T03:03:39;3.00;;;2.10;;
1999;SDS011;1001;48.87406500;9.59633600;2023-02-03T03:06:10;2.27;;;2.00;;
1999;SDS011;1001;48.87406500;9.59633600;2023-02-03T03:08:40;3.23;;;1.97;;
1999;SDS011;1001;48.87406500;9.59633600;2023-02-03T03:11:12;4.83;;;1.77;;
1999;SDS011;1001;48.87406500;9.59633600;2023-02-03T03:13:40;2.60;;;2.00;;
1999;SDS011;1001;48.87406500;9.59633600;2023-02-03T03:16:11;3.07;;;2.27;;
1999;SDS011;1001;48.87406500;9.59633600;2023-02-03T03:18:42;3.50;;;2.10;;
1999;SDS011;1001;48.87406500;9.59633600;2023-02-03T03:21:13;2.00;;;1.77;;
1999;SDS011;1001;48.87406500;9.59633600;2023-02-03T03:23:45;3.63;;;1.83;;
1999;SDS011;1001;48.87406500;9.59633600;2023-02-03T03:26:16;2.17;;;1.70;;
1999;SDS011;1001;48.87406500;9.59633600;2023-02-03T03:28:53;3.10;;;1.77;;
1999;SDS011;1001;48.87406500;9.59633600;2023-02-03T03:31:23;1.90;;;1.60;;
1999;SDS011;1001;48.87406500;9.59633600;2023-02-03T03:33:51;8.63;;;2.47;;
1999;SDS011;1001;48.87406500;9.59633600;2023-02-03T03:36:19;2.87;;;1.80;;
1999;SDS011;1001;48.87406500;9.59633600;2023-02-03T03:38:52;2.20;;;2.00;;
1999;SDS011;1001;48.87406500;9.59633600;2023-02-03T03:41:24;2.40;;;2.00;;
1999;SDS011;1001;48.87406500;9.59633600;2023-02-03T03:43:56;1.73;;;1.50;;
1999;SDS011;1001;48.87406500;9.59633600;2023-02-03T03:46:28;3.73;;;1.73;;
1999;SDS011;1001;48.87406500;9.59633600;2023-02-03T03:49:02;2.00;;;1.60;;
1999;SDS011;1001;48.87406500;9.59633600;2023-02-03T03:51:32;4.57;;;1.83;;
1999;SDS011;1001;48.87406500;9.59633600;2023-02-03T03:54:02;3.17;;;2.10;;
1999;SDS011;1001;48.87406500;9.59633600;2023-02-03T03:56:33;3.87;;;1.40;;
1999;SDS011;1001;48.87406500;9.59633600;2023-02-03T03:59:04;3.30;;;1.77;;
1999;SDS011;1001;48.87406500;9.59633600;2023-02-03T04:01:34;2.37;;;1.90;;
1999;SDS011;1001;48.87406500;9.59633600;2023-02-03T04:04:04;1.80;;;1.70;;
1999;SDS011;1001;48.87406500;9.59633600;2023-02-03T04:06:35;2.03;;;1.40;;
1999;SDS011;1001;48.87406500;9.59633600;2023-02-03T04:09:03;1.90;;;1.27;;
1999;SDS011;1001;48.87406500;9.59633600;2023-02-03T04:11:30;1.93;;;1.63;;
1999;SDS011;1001;48.87406500;9.59633600;2023-02-03T04:14:14;2.00;;;1.80;;
1999;SDS011;1001;48.87406500;9.59633600;2023-02-03T04:16:40;2.20;;;1.30;;
1999;SDS011;1001;48.87406500;9.59633600;2023-02-03T04:19:08;2.00;;;1.50;;
1999;SDS011;1001;48.87406500;9.59633600;2023-02-03T04:21:35;1.70;;;1.30;;
1999;SDS011;1001;48.87406500;9.59633600;2023-02-03T04:24:01;3.17;;;1.47;;
1999;SDS011;1001;48.87406500;9.59633600;2023-02-03T04:26:28;1.97;;;1.30;;
1999;SDS011;1001;48.87406500;9.59633600;2023-02-03T04:28:55;5.33;;;1.53;;
1999;SDS011;1001;48.87406500;9.59633600;2023-02-03T04:31:21;2.30;;;1.20;;
1999;SDS011;1001;48.87406500;9.59633600;2023-02-03T04:33:48;2.00;;;1.23;;
1999;SDS011;1001;48.87406500;9.59633600;2023-02-03T04:36:16;2.30;;;0.90;;
1999;SDS011;1001;48.87406500;9.59633600;2023-02-03T04:38:42;3.33;;;1.17;;
1999;SDS011;1001;48.87406500;9.59633600;2023-02-03T04:41:09;1.70;;;1.20;;
1999;SDS011;1001;48.87406500;9.59633600;2023-02-03T04:43:35;2.10;;;1.00;;
1999;SDS011;1001;48.87406500;9.59633600;2023-02-03T04:46:02;2.40;;;1.37;;
1999;SDS011;1001;48.87406500;9.59633600;2023-02-03T04:48:29;3.10;;;1.40;;
1999;SDS011;1001;48.87406500;9.59633600;2023-02-03T04:50:59;3.37;;;2.00;;
1999;SDS011;1001;48.87406500;9.59633600;2023-02-03T04:53:27;2.73;;;1.20;;
1999;SDS011;1001;48.87406500;9.59633600;2023-02-03T04:55:54;1.10;;;1.00;;
1999;SDS011;1001;48.87406500;9.59633600;2023-02-03T04:58:21;1.70;;;1.23;;
1999;SDS011;1001;48.87406500;9.59633600;2023-02-03T05:00:47;2.27;;;1.37;;
1999;SDS011;1001;48.87406500;9.59633600;2023-02-03T05:03:14;1.73;;;1.20;;
1999;SDS011;1001;48.87406500;9.59633600;2023-02-03T05:05:40;2.43;;;1.40;;
1999;SDS011;1001;48.87406500;9.59633600;2023-02-03T05:08:07;1.47;;;1.23;;
1999;SDS011;1001;48.87406500;9.59633600;2023-02-03T05:10:35;4.77;;;1.33;;
1999;SDS011;1001;48.87406500;9.59633600;2023-02-03T05:13:01;1.73;;;1.33;;
1999;SDS011;1001;48.87406500;9.59633600;2023-02-03T05:15:28;1.70;;;1.23;;
1999;SDS011;1001;48.87406500;9.59633600;2023-02-03T05:17:55;3.70;;;1.70;;
1999;SDS011;1001;48.87406500;9.59633600;2023-02-03T05:20:21;2.10;;;1.90;;
1999;SDS011;1001;48.87406500;9.59633600;2023-02-03T05:22:48;2.37;;;2.10;;
1999;SDS011;1001;48.87406500;9.59633600;2023-02-03T05:25:14;2.57;;;2.37;;
1999;SDS011;1001;48.87406500;9.59633600;2023-02-03T05:27:42;2.83;;;2.47;;
1999;SDS011;1001;48.87406500;9.59633600;2023-02-03T05:30:09;3.53;;;2.03;;
1999;SDS011;1001;48.87406500;9.59633600;2023-02-03T05:32:36;3.57;;;2.17;;
1999;SDS011;1001;48.87406500;9.59633600;2023-02-03T05:35:03;3.90;;;2.33;;
1999;SDS011;1001;48.87406500;9.59633600;2023-02-03T05:37:30;3.23;;;2.17;;
1999;SDS011;1001;48.87406500;9.59633600;2023-02-03T05:39:57;2.87;;;1.90;;
1999;SDS011;1001;48.87406500;9.59633600;2023-02-03T05:42:48;4.07;;;3.00;;
1999;SDS011;1001;48.87406500;9.59633600;2023-02-03T05:45:14;3.10;;;2.80;;
1999;SDS011;1001;48.87406500;9.59633600;2023-02-03T05:47:41;3.13;;;2.30;;
1999;SDS011;1001;48.87406500;9.59633600;2023-02-03T05:50:08;4.50;;;2.50;;
1999;SDS011;1001;48.87406500;9.59633600;2023-02-03T05:52:34;8.20;;;3.40;;
1999;SDS011;1001;48.87406500;9.59633600;2023-02-03T05:55:01;3.37;;;2.73;;
1999;SDS011;1001;48.87406500;9.59633600;2023-02-03T05:57:28;4.47;;;2.83;;
1999;SDS011;1001;48.87406500;9.59633600;2023-02-03T05:59:56;37.53;;;7.27;;
1999;SDS011;1001;48.87406500;9.59633600;2023-02-03T06:02:23;4.77;;;3.30;;
1999;SDS011;1001;48.87406500;9.59633600;2023-02-03T06:04:49;5.50;;;3.10;;
1999;SDS011;1001;48.87406500;9.59633600;2023-02-03T06:07:16;6.33;;;4.07;;
1999;SDS011;1001;48.87406500;9.59633600;2023-02-03T06:09:42;4.60;;;3.60;;
1999;SDS011;1001;48.87406500;9.59633600;2023-02-03T06:12:09;7.43;;;3.80;;
1999;SDS011;1001;48.87406500;9.59633600;2023-02-03T06:14:35;3.70;;;3.10;;
1999;SDS011;1001;48.87406500;9.59633600;2023-02-03T06:17:03;3.87;;;3.47;;
1999;SDS011;1001;48.87406500;9.59633600;2023-02-03T06:19:30;6.33;;;3.40;;
1999;SDS011;1001;48.87406500;9.59633600;2023-02-03T06:21:56;3.43;;;3.03;;
1999;SDS011;1001;48.87406500;9.59633600;2023-02-03T06:24:23;3.60;;;2.90;;
1999;SDS011;1001;48.87406500;9.59633600;2023-02-03T06:26:49;8.30;;;3.90;;
1999;SDS011;1001;48.87406500;9.59633600;2023-02-03T06:29:16;5.83;;;3.80;;
1999;SDS011;1001;48.87406500;9.59633600;2023-02-03T06:31:43;7.17;;;3.40;;
1999;SDS011;1001;48.87406500;9.59633600;2023-02-03T06:34:11;6.87;;;4.20;;
1999;SDS011;1001;48.87406500;9.59633600;2023-02-03T06:36:37;6.83;;;4.47;;
1999;SDS011;1001;48.87406500;9.59633600;2023-02-03T06:39:04;4.07;;;3.50;;
1999;SDS011;1001;48.87406500;9.59633600;2023-02-03T06:41:30;9.43;;;4.80;;
1999;SDS011;1001;48.87406500;9.59633600;2023-02-03T06:43:57;6.47;;;4.77;;
1999;SDS011;1001;48.87406500;9.59633600;2023-02-03T06:46:23;16.00;;;6.37;;
1999;SDS011;1001;48.87406500;9.59633600;2023-02-03T06:48:53;35.70;;;8.80;;
1999;SDS011;1001;48.87406500;9.59633600;2023-02-03T06:51:21;4.87;;;3.67;;
1999;SDS011;1001;48.87406500;9.59633600;2023-02-03T06:53:48;8.87;;;4.57;;
1999;SDS011;1001;48.87406500;9.59633600;2023-02-03T06:56:15;4.80;;;4.30;;
1999;SDS011;1001;48.87406500;9.59633600;2023-02-03T06:58:42;5.73;;;4.13;;
1999;SDS011;1001;48.87406500;9.59633600;2023-02-03T07:01:08;5.83;;;4.07;;
1999;SDS011;1001;48.87406500;9.59633600;2023-02-03T07:03:35;6.00;;;3.90;;
1999;SDS011;1001;48.87406500;9.59633600;2023-02-03T07:06:01;6.50;;;4.07;;
1999;SDS011;1001;48.87406500;9.59633600;2023-02-03T07:08:29;4.20;;;3.13;;
1999;SDS011;1001;48.87406500;9.59633600;2023-02-03T07:10:56;6.90;;;3.27;;
1999;SDS011;1001;48.87406500;9.59633600;2023-02-03T07:13:22;3.80;;;3.43;;
1999;SDS011;1001;48.87406500;9.59633600;2023-02-03T07:15:49;5.40;;;3.27;;
1999;SDS011;1001;48.87406500;9.59633600;2023-02-03T07:18:16;5.43;;;3.60;;
1999;SDS011;1001;48.87406500;9.59633600;2023-02-03T07:20:45;5.57;;;3.13;;
1999;SDS011;1001;48.87406500;9.59633600;2023-02-03T07:23:12;5.87;;;3.90;;
1999;SDS011;1001;48.87406500;9.59633600;2023-02-03T07:25:39;5.10;;;3.27;;
1999;SDS011;1001;48.87406500;9.59633600;2023-02-03T07:28:06;5.23;;;3.67;;
1999;SDS011;1001;48.87406500;9.59633600;2023-02-03T07:30:33;5.30;;;3.17;;
1999;SDS011;1001;48.87406500;9.59633600;2023-02-03T07:32:59;5.70;;;3.43;;
1999;SDS011;1001;48.87406500;9.59633600;2023-02-03T07:35:26;5.70;;;3.87;;
1999;SDS011;1001;48.87406500;9.59633600;2023-02-03T07:37:52;2.70;;;2.13;;
1999;SDS011;1001;48.87406500;9.59633600;2023-02-03T07:40:19;5.60;;;2.80;;
1999;SDS011;1001;48.87406500;9.59633600;2023-02-03T07:42:47;4.33;;;3.03;;
1999;SDS011;1001;48.87406500;9.59633600;2023-02-03T07:45:15;4.83;;;2.60;;
1999;SDS011;1001;48.87406500;9.59633600;2023-02-03T07:47:43;3.40;;;2.33;;
1999;SDS011;1001;48.87406500;9.59633600;2023-02-03T07:50:10;3.87;;;2.63;;
1999;SDS011;1001;48.87406500;9.59633600;2023-02-03T07:52:37;2.73;;;2.33;;
1999;SDS011;1001;48.87406500;9.59633600;2023-02-03T07:55:04;4.30;;;2.40;;
1999;SDS011;1001;48.87406500;9.59633600;2023-02-03T07:57:31;3.73;;;2.50;;
1999;SDS011;1001;48.87406500;9.59633600;2023-02-03T07:59:59;4.47;;;2.33;;
1999;SDS011;1001;48.87406500;9.59633600;2023-02-03T08:02:26;4.97;;;2.87;;
1999;SDS011;1001;48.87406500;9.59633600;2023-02-03T08:04:52;3.93;;;2.63;;
1999;SDS011;1001;48.87406500;9.59633600;2023-02-03T08:07:21;3.30;;;2.37;;
1999;SDS011;1001;48.87406500;9.59633600;2023-02-03T08:09:48;2.57;;;2.17;;
1999;SDS011;1001;48.87406500;9.59633600;2023-02-03T08:12:15;2.30;;;2.10;;
1999;SDS011;1001;48.87406500;9.59633600;2023-02-03T08:14:41;5.43;;;2.30;;
1999;SDS011;1001;48.87406500;9.59633600;2023-02-03T08:17:09;2.27;;;2.07;;
1999;SDS011;1001;48.87406500;9.59633600;2023-02-03T08:19:36;2.73;;;2.13;;
1999;SDS011;1001;48.87406500;9.59633600;2023-02-03T08:22:02;2.50;;;2.30;;
1999;SDS011;1001;48.87406500;9.59633600;2023-02-03T08:24:29;2.90;;;2.07;;
1999;SDS011;1001;48.87406500;9.59633600;2023-02-03T08:26:55;3.50;;;2.50;;
1999;SDS011;1001;48.87406500;9.59633600;2023-02-03T08:29:22;3.60;;;2.73;;
1999;SDS011;1001;48.87406500;9.59633600;2023-02-03T08:31:48;3.10;;;2.60;;
1999;SDS011;1001;48.87406500;9.59633600;2023-02-03T08:34:16;3.67;;;2.10;;
1999;SDS011;1001;48.87406500;9.59633600;2023-02-03T08:36:43;4.00;;;2.87;;
1999;SDS011;1001;48.87406500;9.59633600;2023-02-03T08:39:09;5.27;;;2.97;;
1999;SDS011;1001;48.87406500;9.59633600;2023-02-03T08:41:36;3.30;;;2.30;;
1999;SDS011;1001;48.87406500;9.59633600;2023-02-03T08:44:03;4.90;;;2.27;;
1999;SDS011;1001;48.87406500;9.59633600;2023-02-03T08:46:29;4.87;;;3.10;;
1999;SDS011;1001;48.87406500;9.59633600;2023-02-03T08:48:57;3.17;;;2.80;;
1999;SDS011;1001;48.87406500;9.59633600;2023-02-03T08:51:28;3.90;;;3.00;;
1999;SDS011;1001;48.87406500;9.59633600;2023-02-03T08:53:54;4.83;;;3.03;;
1999;SDS011;1001;48.87406500;9.59633600;2023-02-03T08:56:21;3.60;;;2.70;;
1999;SDS011;1001;48.87406500;9.59633600;2023-02-03T08:58:49;5.30;;;3.53;;
1999;SDS011;1001;48.87406500;9.59633600;2023-02-03T09:01:16;4.70;;;2.90;;
1999;SDS011;1001;48.87406500;9.59633600;2023-02-03T09:03:42;4.47;;;3.37;;
1999;SDS011;1001;48.87406500;9.59633600;2023-02-03T09:06:09;2.80;;;2.50;;
1999;SDS011;1001;48.87406500;9.59633600;2023-02-03T09:08:38;4.97;;;3.20;;
1999;SDS011;1001;48.87406500;9.59633600;2023-02-03T09:11:07;5.00;;;2.77;;
1999;SDS011;1001;48.87406500;9.59633600;2023-02-03T09:13:34;4.13;;;3.63;;
1999;SDS011;1001;48.87406500;9.59633600;2023-02-03T09:16:00;5.40;;;3.90;;
1999;SDS011;1001;48.87406500;9.59633600;2023-02-03T09:18:27;7.77;;;4.57;;
1999;SDS011;1001;48.87406500;9.59633600;2023-02-03T09:20:58;4.70;;;3.30;;
1999;SDS011;1001;48.87406500;9.59633600;2023-02-03T09:23:26;6.53;;;3.50;;
1999;SDS011;1001;48.87406500;9.59633600;2023-02-03T09:25:54;5.00;;;3.40;;
1999;SDS011;1001;48.87406500;9.59633600;2023-02-03T09:28:20;3.30;;;2.63;;
1999;SDS011;1001;48.87406500;9.59633600;2023-02-03T09:30:47;5.53;;;3.70;;
1999;SDS011;1001;48.87406500;9.59633600;2023-02-03T09:33:14;5.13;;;3.40;;
1999;SDS011;1001;48.87406500;9.59633600;2023-02-03T09:35:40;3.83;;;2.60;;
1999;SDS011;1001;48.87406500;9.59633600;2023-02-03T09:38:07;8.90;;;4.07;;
1999;SDS011;1001;48.87406500;9.59633600;2023-02-03T09:40:33;7.00;;;4.00;;
1999;SDS011;1001;48.87406500;9.59633600;2023-02-03T09:43:12;5.67;;;3.67;;
1999;SDS011;1001;48.87406500;9.59633600;2023-02-03T09:45:47;4.03;;;3.70;;
1999;SDS011;1001;48.87406500;9.59633600;2023-02-03T09:48:15;4.60;;;3.90;;
1999;SDS011;1001;48.87406500;9.59633600;2023-02-03T09:50:46;5.50;;;3.30;;
1999;SDS011;1001;48.87406500;9.59633600;2023-02-03T09:53:18;3.10;;;2.63;;
1999;SDS011;1001;48.87406500;9.59633600;2023-02-03T09:55:53;4.57;;;3.90;;
1999;SDS011;1001;48.87406500;9.59633600;2023-02-03T09:58:21;5.20;;;2.37;;
1999;SDS011;1001;48.87406500;9.59633600;2023-02-03T10:00:49;4.20;;;3.70;;
1999;SDS011;1001;48.87406500;9.59633600;2023-02-03T10:03:22;4.93;;;3.20;;
1999;SDS011;1001;48.87406500;9.59633600;2023-02-03T10:06:00;7.90;;;3.40;;
1999;SDS011;1001;48.87406500;9.59633600;2023-02-03T10:08:37;4.87;;;3.33;;
1999;SDS011;1001;48.87406500;9.59633600;2023-02-03T10:11:19;3.43;;;2.90;;
1999;SDS011;1001;48.87406500;9.59633600;2023-02-03T10:13:57;3.40;;;2.67;;
1999;SDS011;1001;48.87406500;9.59633600;2023-02-03T10:16:40;3.60;;;2.80;;
1999;SDS011;1001;48.87406500;9.59633600;2023-02-03T10:19:14;4.50;;;3.17;;
1999;SDS011;1001;48.87406500;9.59633600;2023-02-03T10:21:46;4.90;;;2.87;;
1999;SDS011;1001;48.87406500;9.59633600;2023-02-03T10:24:17;2.53;;;2.33;;
1999;SDS011;1001;48.87406500;9.59633600;2023-02-03T10:26:49;5.40;;;2.80;;
1999;SDS011;1001;48.87406500;9.59633600;2023-02-03T10:29:19;4.63;;;2.73;;
1999;SDS011;1001;48.87406500;9.59633600;2023-02-03T10:31:49;5.90;;;2.80;;
1999;SDS011;1001;48.87406500;9.59633600;2023-02-03T10:34:23;8.30;;;3.40;;
1999;SDS011;1001;48.87406500;9.59633600;2023-02-03T10:36:53;3.50;;;2.60;;
1999;SDS011;1001;48.87406500;9.59633600;2023-02-03T10:39:24;3.23;;;2.73;;
1999;SDS011;1001;48.87406500;9.59633600;2023-02-03T10:41:56;4.37;;;2.53;;
1999;SDS011;1001;48.87406500;9.59633600;2023-02-03T10:44:30;2.37;;;2.17;;
1999;SDS011;1001;48.87406500;9.59633600;2023-02-03T10:47:08;6.53;;;2.30;;
1999;SDS011;1001;48.87406500;9.59633600;2023-02-03T10:49:43;5.63;;;2.50;;
1999;SDS011;1001;48.87406500;9.59633600;2023-02-03T10:52:23;4.30;;;2.33;;
1999;SDS011;1001;48.87406500;9.59633600;2023-02-03T10:54:51;3.63;;;2.33;;
1999;SDS011;1001;48.87406500;9.59633600;2023-02-03T10:57:18;2.97;;;2.27;;
1999;SDS011;1001;48.87406500;9.59633600;2023-02-03T10:59:47;3.53;;;2.30;;
1999;SDS011;1001;48.87406500;9.59633600;2023-02-03T11:02:21;3.97;;;2.10;;
1999;SDS011;1001;48.87406500;9.59633600;2023-02-03T11:07:36;2.37;;;2.17;;
1999;SDS011;1001;48.87406500;9.59633600;2023-02-03T11:10:02;4.80;;;3.10;;
1999;SDS011;1001;48.87406500;9.59633600;2023-02-03T11:12:29;4.47;;;2.30;;
1999;SDS011;1001;48.87406500;9.59633600;2023-02-03T11:14:57;4.30;;;2.80;;
1999;SDS011;1001;48.87406500;9.59633600;2023-02-03T11:17:32;2.93;;;1.90;;
1999;SDS011;1001;48.87406500;9.59633600;2023-02-03T11:20:02;2.90;;;2.00;;
1999;SDS011;1001;48.87406500;9.59633600;2023-02-03T11:22:38;2.33;;;1.70;;
1999;SDS011;1001;48.87406500;9.59633600;2023-02-03T11:25:14;1.83;;;1.43;;
1999;SDS011;1001;48.87406500;9.59633600;2023-02-03T11:27:42;6.50;;;2.33;;
1999;SDS011;1001;48.87406500;9.59633600;2023-02-03T11:30:15;4.20;;;2.30;;
1999;SDS011;1001;48.87406500;9.59633600;2023-02-03T11:32:45;2.13;;;1.93;;
1999;SDS011;1001;48.87406500;9.59633600;2023-02-03T11:35:14;2.77;;;2.50;;
1999;SDS011;1001;48.87406500;9.59633600;2023-02-03T11:37:43;3.30;;;2.47;;
1999;SDS011;1001;48.87406500;9.59633600;2023-02-03T11:40:11;1.93;;;1.50;;
1999;SDS011;1001;48.87406500;9.59633600;2023-02-03T11:42:58;1.70;;;1.60;;
1999;SDS011;1001;48.87406500;9.59633600;2023-02-03T11:45:28;4.80;;;1.97;;
1999;SDS011;1001;48.87406500;9.59633600;2023-02-03T11:48:00;2.43;;;1.53;;
1999;SDS011;1001;48.87406500;9.59633600;2023-02-03T11:50:32;3.27;;;1.80;;
1999;SDS011;1001;48.87406500;9.59633600;2023-02-03T11:53:06;2.47;;;1.17;;
1999;SDS011;1001;48.87406500;9.59633600;2023-02-03T11:55:51;2.20;;;1.10;;
1999;SDS011;1001;48.87406500;9.59633600;2023-02-03T11:58:34;2.37;;;1.00;;
1999;SDS011;1001;48.87406500;9.59633600;2023-02-03T12:01:12;4.50;;;1.20;;
1999;SDS011;1001;48.87406500;9.59633600;2023-02-03T12:06:49;3.53;;;1.17;;
1999;SDS011;1001;48.87406500;9.59633600;2023-02-03T12:09:32;1.93;;;1.30;;
1999;SDS011;1001;48.87406500;9.59633600;2023-02-03T12:12:23;1.93;;;1.33;;
1999;SDS011;1001;48.87406500;9.59633600;2023-02-03T12:15:02;3.47;;;1.80;;
1999;SDS011;1001;48.87406500;9.59633600;2023-02-03T12:17:48;1.43;;;1.00;;
1999;SDS011;1001;48.87406500;9.59633600;2023-02-03T12:20:37;2.23;;;1.10;;
1999;SDS011;1001;48.87406500;9.59633600;2023-02-03T12:23:17;1.57;;;0.90;;
1999;SDS011;1001;48.87406500;9.59633600;2023-02-03T12:25:58;0.80;;;0.60;;
1999;SDS011;1001;48.87406500;9.59633600;2023-02-03T12:28:34;1.27;;;0.80;;
1999;SDS011;1001;48.87406500;9.59633600;2023-02-03T12:31:12;1.13;;;0.40;;
1999;SDS011;1001;48.87406500;9.59633600;2023-02-03T12:33:44;1.60;;;0.73;;
1999;SDS011;1001;48.87406500;9.59633600;2023-02-03T12:36:14;2.50;;;1.13;;
1999;SDS011;1001;48.87406500;9.59633600;2023-02-03T12:38:47;0.70;;;0.50;;
1999;SDS011;1001;48.87406500;9.59633600;2023-02-03T12:41:19;0.93;;;0.70;;
1999;SDS011;1001;48.87406500;9.59633600;2023-02-03T12:43:51;3.50;;;1.13;;
1999;SDS011;1001;48.87406500;9.59633600;2023-02-03T12:46:22;0.80;;;0.40;;
1999;SDS011;1001;48.87406500;9.59633600;2023-02-03T12:48:55;1.10;;;0.70;;
1999;SDS011;1001;48.87406500;9.59633600;2023-02-03T12:51:29;1.30;;;1.00;;
1999;SDS011;1001;48.87406500;9.59633600;2023-02-03T12:54:02;0.80;;;0.53;;
1999;SDS011;1001;48.87406500;9.59633600;2023-02-03T12:56:36;1.30;;;0.70;;
1999;SDS011;1001;48.87406500;9.59633600;2023-02-03T12:59:08;1.13;;;0.70;;
1999;SDS011;1001;48.87406500;9.59633600;2023-02-03T13:01:41;1.27;;;0.93;;
1999;SDS011;1001;48.87406500;9.59633600;2023-02-03T13:04:17;1.13;;;0.63;;
1999;SDS011;1001;48.87406500;9.59633600;2023-02-03T13:06:55;0.93;;;0.53;;
1999;SDS011;1001;48.87406500;9.59633600;2023-02-03T13:09:30;0.63;;;0.60;;
1999;SDS011;1001;48.87406500;9.59633600;2023-02-03T13:12:04;0.80;;;0.70;;
1999;SDS011;1001;48.87406500;9.59633600;2023-02-03T13:14:35;0.90;;;0.80;;
1999;SDS011;1001;48.87406500;9.59633600;2023-02-03T13:17:07;1.10;;;0.60;;
1999;SDS011;1001;48.87406500;9.59633600;2023-02-03T13:19:44;0.73;;;0.47;;
1999;SDS011;1001;48.87406500;9.59633600;2023-02-03T13:22:14;1.20;;;0.83;;
1999;SDS011;1001;48.87406500;9.59633600;2023-02-03T13:24:42;1.00;;;0.90;;
1999;SDS011;1001;48.87406500;9.59633600;2023-02-03T13:27:17;1.00;;;0.90;;
1999;SDS011;1001;48.87406500;9.59633600;2023-02-03T13:32:54;1.03;;;0.70;;
1999;SDS011;1001;48.87406500;9.59633600;2023-02-03T13:35:45;1.00;;;0.63;;